sensor_id;sensor_type;location;lat;lon;timestamp;P1;durP1;ratioP1;P2;durP2;ratioP2
33413;SDS011;60055;41.884;12.534;2023-01-05T00:01:06;66.25;;;44.67;;
33413;SDS011;60055;41.884;12.534;2023-01-05T00:03:34;63.63;;;42.45;;
33413;SDS011;60055;41.884;12.534;2023-01-05T00:06:01;65.30;;;42.80;;
33413;SDS011;60055;41.884;12.534;2023-01-05T00:08:30;60.72;;;39.90;;
33413;SDS011;60055;41.884;12.534;2023-01-05T00:10:55;55.05;;;36.75;;
33413;SDS011;60055;41.884;12.534;2023-01-05T00:16:24;53.30;;;35.70;;
33413;SDS011;60055;41.884;12.534;2023-01-05T00:19:09;51.85;;;34.40;;
33413;SDS011;60055;41.884;12.534;2023-01-05T00:21:54;53.47;;;35.78;;
33413;SDS011;60055;41.884;12.534;2023-01-05T00:24:39;51.42;;;33.40;;
33413;SDS011;60055;41.884;12.534;2023-01-05T00:27:05;48.20;;;33.42;;
33413;SDS011;60055;41.884;12.534;2023-01-05T00:29:30;49.20;;;34.65;;
33413;SDS011;60055;41.884;12.534;2023-01-05T00:31:56;51.30;;;33.83;;
33413;SDS011;60055;41.884;12.534;2023-01-05T00:34:21;51.22;;;34.20;;
33413;SDS011;60055;41.884;12.534;2023-01-05T00:36:47;49.25;;;34.03;;
33413;SDS011;60055;41.884;12.534;2023-01-05T00:39:12;46.95;;;33.65;;
33413;SDS011;60055;41.884;12.534;2023-01-05T00:41:38;53.90;;;34.20;;
33413;SDS011;60055;41.884;12.534;2023-01-05T00:44:05;44.53;;;31.75;;
33413;SDS011;60055;41.884;12.534;2023-01-05T00:46:30;45.70;;;32.08;;
33413;SDS011;60055;41.884;12.534;2023-01-05T00:48:56;46.92;;;31.73;;
33413;SDS011;60055;41.884;12.534;2023-01-05T00:51:22;47.08;;;31.60;;
33413;SDS011;60055;41.884;12.534;2023-01-05T00:53:47;44.15;;;30.52;;
33413;SDS011;60055;41.884;12.534;2023-01-05T00:56:13;41.53;;;29.10;;
33413;SDS011;60055;41.884;12.534;2023-01-05T00:58:39;39.05;;;28.58;;
33413;SDS011;60055;41.884;12.534;2023-01-05T01:01:09;39.63;;;28.50;;
33413;SDS011;60055;41.884;12.534;2023-01-05T01:03:36;37.38;;;27.48;;
33413;SDS011;60055;41.884;12.534;2023-01-05T01:06:01;37.17;;;27.08;;
33413;SDS011;60055;41.884;12.534;2023-01-05T01:08:33;35.83;;;26.45;;
33413;SDS011;60055;41.884;12.534;2023-01-05T01:11:31;36.72;;;25.95;;
33413;SDS011;60055;41.884;12.534;2023-01-05T01:13:58;35.83;;;25.98;;
33413;SDS011;60055;41.884;12.534;2023-01-05T01:16:26;32.80;;;24.67;;
33413;SDS011;60055;41.884;12.534;2023-01-05T01:18:55;35.47;;;25.85;;
33413;SDS011;60055;41.884;12.534;2023-01-05T01:21:21;34.50;;;26.20;;
33413;SDS011;60055;41.884;12.534;2023-01-05T01:23:47;36.70;;;25.60;;
33413;SDS011;60055;41.884;12.534;2023-01-05T01:26:13;37.20;;;26.10;;
33413;SDS011;60055;41.884;12.534;2023-01-05T01:28:38;33.35;;;25.40;;
33413;SDS011;60055;41.884;12.534;2023-01-05T01:31:04;37.85;;;26.08;;
33413;SDS011;60055;41.884;12.534;2023-01-05T01:33:31;35.45;;;25.13;;
33413;SDS011;60055;41.884;12.534;2023-01-05T01:35:57;33.05;;;25.35;;
33413;SDS011;60055;41.884;12.534;2023-01-05T01:38:23;34.05;;;24.48;;
33413;SDS011;60055;41.884;12.534;2023-01-05T01:40:49;35.53;;;25.20;;
33413;SDS011;60055;41.884;12.534;2023-01-05T01:43:16;34.55;;;24.63;;
33413;SDS011;60055;41.884;12.534;2023-01-05T01:45:44;33.33;;;23.80;;
33413;SDS011;60055;41.884;12.534;2023-01-05T01:48:11;34.13;;;24.95;;
33413;SDS011;60055;41.884;12.534;2023-01-05T01:50:50;32.40;;;23.88;;
33413;SDS011;60055;41.884;12.534;2023-01-05T01:53:25;31.83;;;24.67;;
33413;SDS011;60055;41.884;12.534;2023-01-05T01:56:02;32.85;;;24.55;;
33413;SDS011;60055;41.884;12.534;2023-01-05T01:58:30;32.47;;;24.30;;
33413;SDS011;60055;41.884;12.534;2023-01-05T02:00:56;34.92;;;24.55;;
33413;SDS011;60055;41.884;12.534;2023-01-05T02:03:24;34.05;;;23.90;;
33413;SDS011;60055;41.884;12.534;2023-01-05T02:05:52;34.63;;;24.70;;
33413;SDS011;60055;41.884;12.534;2023-01-05T02:08:17;33.60;;;24.45;;
33413;SDS011;60055;41.884;12.534;2023-01-05T02:10:55;34.50;;;24.13;;
33413;SDS011;60055;41.884;12.534;2023-01-05T02:22:03;29.80;;;21.77;;
33413;SDS011;60055;41.884;12.534;2023-01-05T02:27:21;28.17;;;21.17;;
33413;SDS011;60055;41.884;12.534;2023-01-05T02:35:29;28.42;;;20.92;;
33413;SDS011;60055;41.884;12.534;2023-01-05T02:44:15;27.42;;;21.27;;
33413;SDS011;60055;41.884;12.534;2023-01-05T02:46:42;28.00;;;20.33;;
33413;SDS011;60055;41.884;12.534;2023-01-05T02:49:08;28.80;;;19.92;;
33413;SDS011;60055;41.884;12.534;2023-01-05T02:51:35;25.77;;;20.17;;
33413;SDS011;60055;41.884;12.534;2023-01-05T02:54:06;27.95;;;20.85;;
33413;SDS011;60055;41.884;12.534;2023-01-05T02:56:41;28.42;;;20.75;;
33413;SDS011;60055;41.884;12.534;2023-01-05T02:59:21;25.25;;;19.83;;
33413;SDS011;60055;41.884;12.534;2023-01-05T03:01:53;27.42;;;19.48;;
33413;SDS011;60055;41.884;12.534;2023-01-05T03:04:31;24.98;;;19.63;;
33413;SDS011;60055;41.884;12.534;2023-01-05T03:07:04;28.58;;;20.60;;
33413;SDS011;60055;41.884;12.534;2023-01-05T03:09:37;28.15;;;20.23;;
33413;SDS011;60055;41.884;12.534;2023-01-05T03:12:18;28.10;;;20.20;;
33413;SDS011;60055;41.884;12.534;2023-01-05T03:17:45;28.42;;;20.70;;
33413;SDS011;60055;41.884;12.534;2023-01-05T03:20:17;36.63;;;21.17;;
33413;SDS011;60055;41.884;12.534;2023-01-05T03:22:47;37.63;;;22.67;;
33413;SDS011;60055;41.884;12.534;2023-01-05T03:25:32;33.05;;;22.55;;
33413;SDS011;60055;41.884;12.534;2023-01-05T03:28:21;36.53;;;22.52;;
33413;SDS011;60055;41.884;12.534;2023-01-05T03:31:12;30.42;;;22.17;;
33413;SDS011;60055;41.884;12.534;2023-01-05T03:34:08;38.80;;;22.95;;
33413;SDS011;60055;41.884;12.534;2023-01-05T03:37:01;29.35;;;21.25;;
33413;SDS011;60055;41.884;12.534;2023-01-05T03:39:39;32.78;;;21.90;;
33413;SDS011;60055;41.884;12.534;2023-01-05T03:42:08;47.75;;;22.15;;
33413;SDS011;60055;41.884;12.534;2023-01-05T03:44:36;38.08;;;22.15;;
33413;SDS011;60055;41.884;12.534;2023-01-05T03:47:03;44.83;;;23.13;;
33413;SDS011;60055;41.884;12.534;2023-01-05T03:49:29;45.65;;;23.58;;
33413;SDS011;60055;41.884;12.534;2023-01-05T03:51:55;38.42;;;23.75;;
33413;SDS011;60055;41.884;12.534;2023-01-05T03:54:21;36.60;;;23.55;;
33413;SDS011;60055;41.884;12.534;2023-01-05T03:56:46;40.85;;;23.30;;
33413;SDS011;60055;41.884;12.534;2023-01-05T03:59:12;41.33;;;22.73;;
33413;SDS011;60055;41.884;12.534;2023-01-05T04:01:38;51.95;;;22.60;;
33413;SDS011;60055;41.884;12.534;2023-01-05T04:04:04;43.95;;;22.20;;
33413;SDS011;60055;41.884;12.534;2023-01-05T04:06:29;49.85;;;22.25;;
33413;SDS011;60055;41.884;12.534;2023-01-05T04:08:55;42.85;;;20.88;;
33413;SDS011;60055;41.884;12.534;2023-01-05T04:11:21;96.30;;;21.63;;
33413;SDS011;60055;41.884;12.534;2023-01-05T04:13:48;85.22;;;21.77;;
33413;SDS011;60055;41.884;12.534;2023-01-05T04:16:14;42.15;;;21.25;;
33413;SDS011;60055;41.884;12.534;2023-01-05T04:18:41;59.47;;;20.75;;
33413;SDS011;60055;41.884;12.534;2023-01-05T04:21:07;61.28;;;21.23;;
33413;SDS011;60055;41.884;12.534;2023-01-05T04:23:33;33.65;;;21.25;;
33413;SDS011;60055;41.884;12.534;2023-01-05T04:25:59;90.07;;;23.73;;
33413;SDS011;60055;41.884;12.534;2023-01-05T04:28:25;57.53;;;23.38;;
33413;SDS011;60055;41.884;12.534;2023-01-05T04:30:51;43.83;;;22.92;;
33413;SDS011;60055;41.884;12.534;2023-01-05T04:33:18;76.80;;;23.92;;
33413;SDS011;60055;41.884;12.534;2023-01-05T04:35:44;56.03;;;22.50;;
33413;SDS011;60055;41.884;12.534;2023-01-05T04:38:10;34.13;;;22.85;;
33413;SDS011;60055;41.884;12.534;2023-01-05T04:40:36;32.42;;;22.05;;
33413;SDS011;60055;41.884;12.534;2023-01-05T04:43:03;54.13;;;23.23;;
33413;SDS011;60055;41.884;12.534;2023-01-05T04:45:29;42.50;;;22.77;;
33413;SDS011;60055;41.884;12.534;2023-01-05T04:47:55;77.45;;;22.35;;
33413;SDS011;60055;41.884;12.534;2023-01-05T04:50:21;62.83;;;22.42;;
33413;SDS011;60055;41.884;12.534;2023-01-05T04:52:47;35.55;;;21.92;;
33413;SDS011;60055;41.884;12.534;2023-01-05T04:55:15;50.22;;;22.48;;
33413;SDS011;60055;41.884;12.534;2023-01-05T04:57:42;106.45;;;22.10;;
33413;SDS011;60055;41.884;12.534;2023-01-05T05:00:07;58.03;;;21.23;;
33413;SDS011;60055;41.884;12.534;2023-01-05T05:02:35;34.78;;;21.67;;
33413;SDS011;60055;41.884;12.534;2023-01-05T05:05:01;88.82;;;23.13;;
33413;SDS011;60055;41.884;12.534;2023-01-05T05:07:27;54.90;;;22.38;;
33413;SDS011;60055;41.884;12.534;2023-01-05T05:09:53;36.83;;;22.73;;
33413;SDS011;60055;41.884;12.534;2023-01-05T05:12:18;44.30;;;22.73;;
33413;SDS011;60055;41.884;12.534;2023-01-05T05:14:47;60.60;;;22.17;;
33413;SDS011;60055;41.884;12.534;2023-01-05T05:17:13;44.55;;;22.30;;
33413;SDS011;60055;41.884;12.534;2023-01-05T05:19:39;51.88;;;22.38;;
33413;SDS011;60055;41.884;12.534;2023-01-05T05:22:05;54.65;;;21.88;;
33413;SDS011;60055;41.884;12.534;2023-01-05T05:24:30;139.13;;;23.98;;
33413;SDS011;60055;41.884;12.534;2023-01-05T05:26:56;54.90;;;23.00;;
33413;SDS011;60055;41.884;12.534;2023-01-05T05:29:22;86.95;;;22.67;;
33413;SDS011;60055;41.884;12.534;2023-01-05T05:31:48;45.33;;;23.08;;
33413;SDS011;60055;41.884;12.534;2023-01-05T05:34:15;100.05;;;24.30;;
33413;SDS011;60055;41.884;12.534;2023-01-05T05:36:41;67.00;;;24.08;;
33413;SDS011;60055;41.884;12.534;2023-01-05T05:39:11;118.85;;;23.38;;
33413;SDS011;60055;41.884;12.534;2023-01-05T05:41:38;94.38;;;23.58;;
33413;SDS011;60055;41.884;12.534;2023-01-05T05:44:03;63.80;;;22.35;;
33413;SDS011;60055;41.884;12.534;2023-01-05T05:46:29;59.10;;;21.95;;
33413;SDS011;60055;41.884;12.534;2023-01-05T05:48:55;42.08;;;22.88;;
33413;SDS011;60055;41.884;12.534;2023-01-05T05:51:22;84.75;;;22.80;;
33413;SDS011;60055;41.884;12.534;2023-01-05T05:53:49;44.88;;;22.35;;
33413;SDS011;60055;41.884;12.534;2023-01-05T05:56:15;48.42;;;22.15;;
33413;SDS011;60055;41.884;12.534;2023-01-05T05:58:40;42.88;;;22.23;;
33413;SDS011;60055;41.884;12.534;2023-01-05T06:01:06;38.85;;;22.38;;
33413;SDS011;60055;41.884;12.534;2023-01-05T06:03:32;38.65;;;22.58;;
33413;SDS011;60055;41.884;12.534;2023-01-05T06:05:57;55.42;;;23.42;;
33413;SDS011;60055;41.884;12.534;2023-01-05T06:08:23;49.22;;;22.90;;
33413;SDS011;60055;41.884;12.534;2023-01-05T06:10:51;76.07;;;22.00;;
33413;SDS011;60055;41.884;12.534;2023-01-05T06:13:16;60.67;;;23.50;;
33413;SDS011;60055;41.884;12.534;2023-01-05T06:15:43;62.38;;;22.38;;
33413;SDS011;60055;41.884;12.534;2023-01-05T06:18:08;70.55;;;21.52;;
33413;SDS011;60055;41.884;12.534;2023-01-05T06:20:34;60.03;;;22.25;;
33413;SDS011;60055;41.884;12.534;2023-01-05T06:23:00;31.83;;;21.90;;
33413;SDS011;60055;41.884;12.534;2023-01-05T06:25:26;30.13;;;21.15;;
33413;SDS011;60055;41.884;12.534;2023-01-05T06:27:51;41.42;;;21.10;;
33413;SDS011;60055;41.884;12.534;2023-01-05T06:30:17;36.40;;;20.20;;
33413;SDS011;60055;41.884;12.534;2023-01-05T06:32:44;67.40;;;20.77;;
33413;SDS011;60055;41.884;12.534;2023-01-05T06:35:10;39.05;;;20.10;;
33413;SDS011;60055;41.884;12.534;2023-01-05T06:37:37;30.02;;;20.85;;
33413;SDS011;60055;41.884;12.534;2023-01-05T06:40:03;38.05;;;21.20;;
33413;SDS011;60055;41.884;12.534;2023-01-05T06:42:29;36.08;;;20.80;;
33413;SDS011;60055;41.884;12.534;2023-01-05T06:44:56;30.42;;;20.00;;
33413;SDS011;60055;41.884;12.534;2023-01-05T06:47:21;44.78;;;20.35;;
33413;SDS011;60055;41.884;12.534;2023-01-05T06:49:47;38.78;;;20.77;;
33413;SDS011;60055;41.884;12.534;2023-01-05T06:52:15;40.78;;;21.65;;
33413;SDS011;60055;41.884;12.534;2023-01-05T06:54:41;36.53;;;21.48;;
33413;SDS011;60055;41.884;12.534;2023-01-05T06:57:06;36.38;;;22.52;;
33413;SDS011;60055;41.884;12.534;2023-01-05T06:59:32;32.30;;;20.88;;
33413;SDS011;60055;41.884;12.534;2023-01-05T07:01:58;56.47;;;21.00;;
33413;SDS011;60055;41.884;12.534;2023-01-05T07:04:23;55.92;;;20.40;;
33413;SDS011;60055;41.884;12.534;2023-01-05T07:06:49;48.72;;;19.10;;
33413;SDS011;60055;41.884;12.534;2023-01-05T07:09:14;146.18;;;20.77;;
33413;SDS011;60055;41.884;12.534;2023-01-05T07:11:43;39.80;;;20.27;;
33413;SDS011;60055;41.884;12.534;2023-01-05T07:14:11;47.08;;;19.20;;
33413;SDS011;60055;41.884;12.534;2023-01-05T07:16:37;44.03;;;20.13;;
33413;SDS011;60055;41.884;12.534;2023-01-05T07:19:02;30.40;;;20.70;;
33413;SDS011;60055;41.884;12.534;2023-01-05T07:21:28;39.92;;;20.83;;
33413;SDS011;60055;41.884;12.534;2023-01-05T07:23:53;52.70;;;21.38;;
33413;SDS011;60055;41.884;12.534;2023-01-05T07:26:19;58.30;;;20.90;;
33413;SDS011;60055;41.884;12.534;2023-01-05T07:28:44;35.33;;;20.17;;
33413;SDS011;60055;41.884;12.534;2023-01-05T07:31:10;47.05;;;20.42;;
33413;SDS011;60055;41.884;12.534;2023-01-05T07:33:38;32.20;;;21.63;;
33413;SDS011;60055;41.884;12.534;2023-01-05T07:36:03;49.38;;;23.17;;
33413;SDS011;60055;41.884;12.534;2023-01-05T07:38:30;48.55;;;21.55;;
33413;SDS011;60055;41.884;12.534;2023-01-05T07:40:57;34.28;;;22.73;;
33413;SDS011;60055;41.884;12.534;2023-01-05T07:43:24;59.97;;;22.45;;
33413;SDS011;60055;41.884;12.534;2023-01-05T07:45:49;38.08;;;23.30;;
33413;SDS011;60055;41.884;12.534;2023-01-05T07:48:15;65.80;;;22.52;;
33413;SDS011;60055;41.884;12.534;2023-01-05T07:50:43;46.22;;;22.70;;
33413;SDS011;60055;41.884;12.534;2023-01-05T07:53:11;64.57;;;22.73;;
33413;SDS011;60055;41.884;12.534;2023-01-05T07:55:36;40.10;;;22.27;;
33413;SDS011;60055;41.884;12.534;2023-01-05T07:58:02;54.25;;;23.42;;
33413;SDS011;60055;41.884;12.534;2023-01-05T08:00:29;37.42;;;23.13;;
33413;SDS011;60055;41.884;12.534;2023-01-05T08:02:55;51.58;;;21.90;;
33413;SDS011;60055;41.884;12.534;2023-01-05T08:05:20;35.13;;;23.23;;
33413;SDS011;60055;41.884;12.534;2023-01-05T08:07:46;36.42;;;22.48;;
33413;SDS011;60055;41.884;12.534;2023-01-05T08:10:13;35.75;;;23.77;;
33413;SDS011;60055;41.884;12.534;2023-01-05T08:12:53;47.97;;;24.65;;
33413;SDS011;60055;41.884;12.534;2023-01-05T08:15:38;44.17;;;23.92;;
33413;SDS011;60055;41.884;12.534;2023-01-05T08:18:03;38.10;;;23.88;;
33413;SDS011;60055;41.884;12.534;2023-01-05T08:20:29;37.60;;;24.45;;
33413;SDS011;60055;41.884;12.534;2023-01-05T08:22:55;33.30;;;22.83;;
33413;SDS011;60055;41.884;12.534;2023-01-05T08:25:20;32.85;;;21.63;;
33413;SDS011;60055;41.884;12.534;2023-01-05T08:27:46;33.17;;;21.30;;
33413;SDS011;60055;41.884;12.534;2023-01-05T08:30:12;30.52;;;20.67;;
33413;SDS011;60055;41.884;12.534;2023-01-05T08:32:39;32.70;;;20.90;;
33413;SDS011;60055;41.884;12.534;2023-01-05T08:35:05;33.90;;;20.50;;
33413;SDS011;60055;41.884;12.534;2023-01-05T08:37:31;34.92;;;22.23;;
33413;SDS011;60055;41.884;12.534;2023-01-05T08:39:57;34.25;;;21.50;;
33413;SDS011;60055;41.884;12.534;2023-01-05T08:42:23;36.03;;;22.15;;
33413;SDS011;60055;41.884;12.534;2023-01-05T08:44:48;32.78;;;21.20;;
33413;SDS011;60055;41.884;12.534;2023-01-05T08:47:14;34.80;;;21.70;;
33413;SDS011;60055;41.884;12.534;2023-01-05T08:49:39;38.75;;;24.00;;
33413;SDS011;60055;41.884;12.534;2023-01-05T08:52:06;46.72;;;24.25;;
33413;SDS011;60055;41.884;12.534;2023-01-05T08:54:32;40.80;;;23.63;;
33413;SDS011;60055;41.884;12.534;2023-01-05T08:57:00;32.00;;;22.42;;
33413;SDS011;60055;41.884;12.534;2023-01-05T08:59:26;35.80;;;23.23;;
33413;SDS011;60055;41.884;12.534;2023-01-05T09:01:52;32.25;;;21.60;;
33413;SDS011;60055;41.884;12.534;2023-01-05T09:04:17;30.27;;;20.67;;
33413;SDS011;60055;41.884;12.534;2023-01-05T09:06:43;35.58;;;21.52;;
33413;SDS011;60055;41.884;12.534;2023-01-05T09:09:09;34.03;;;21.45;;
33413;SDS011;60055;41.884;12.534;2023-01-05T09:11:34;31.63;;;21.17;;
33413;SDS011;60055;41.884;12.534;2023-01-05T09:14:00;31.52;;;20.30;;
33413;SDS011;60055;41.884;12.534;2023-01-05T09:16:30;30.92;;;20.42;;
33413;SDS011;60055;41.884;12.534;2023-01-05T09:18:58;26.17;;;19.13;;
33413;SDS011;60055;41.884;12.534;2023-01-05T09:21:24;31.08;;;20.92;;
33413;SDS011;60055;41.884;12.534;2023-01-05T09:23:50;29.75;;;20.23;;
33413;SDS011;60055;41.884;12.534;2023-01-05T09:26:16;28.58;;;19.52;;
33413;SDS011;60055;41.884;12.534;2023-01-05T09:28:42;32.78;;;20.70;;
33413;SDS011;60055;41.884;12.534;2023-01-05T09:31:09;29.88;;;20.80;;
33413;SDS011;60055;41.884;12.534;2023-01-05T09:33:39;27.85;;;19.70;;
33413;SDS011;60055;41.884;12.534;2023-01-05T09:36:06;29.58;;;21.33;;
33413;SDS011;60055;41.884;12.534;2023-01-05T09:38:32;30.67;;;20.30;;
33413;SDS011;60055;41.884;12.534;2023-01-05T09:41:42;29.75;;;20.60;;
33413;SDS011;60055;41.884;12.534;2023-01-05T09:43:58;25.75;;;18.90;;
33413;SDS011;60055;41.884;12.534;2023-01-05T09:49:03;30.02;;;19.33;;
33413;SDS011;60055;41.884;12.534;2023-01-05T09:51:35;30.20;;;19.70;;
33413;SDS011;60055;41.884;12.534;2023-01-05T09:54:01;28.35;;;19.88;;
33413;SDS011;60055;41.884;12.534;2023-01-05T09:56:32;29.88;;;19.90;;
33413;SDS011;60055;41.884;12.534;2023-01-05T09:59:13;28.67;;;20.50;;
33413;SDS011;60055;41.884;12.534;2023-01-05T10:01:47;32.85;;;20.13;;
33413;SDS011;60055;41.884;12.534;2023-01-05T10:04:18;30.33;;;19.85;;
33413;SDS011;60055;41.884;12.534;2023-01-05T10:06:49;30.38;;;20.73;;
33413;SDS011;60055;41.884;12.534;2023-01-05T10:13:03;30.23;;;20.77;;
33413;SDS011;60055;41.884;12.534;2023-01-05T10:16:00;33.05;;;21.92;;
33413;SDS011;60055;41.884;12.534;2023-01-05T10:18:26;30.20;;;20.77;;
33413;SDS011;60055;41.884;12.534;2023-01-05T10:23:55;28.05;;;20.15;;
33413;SDS011;60055;41.884;12.534;2023-01-05T10:26:44;36.60;;;20.70;;
33413;SDS011;60055;41.884;12.534;2023-01-05T10:29:35;29.15;;;19.67;;
33413;SDS011;60055;41.884;12.534;2023-01-05T10:32:14;34.25;;;20.20;;
33413;SDS011;60055;41.884;12.534;2023-01-05T10:35:00;31.60;;;20.05;;
33413;SDS011;60055;41.884;12.534;2023-01-05T10:45:55;28.33;;;19.58;;
33413;SDS011;60055;41.884;12.534;2023-01-05T10:48:22;26.63;;;19.60;;
33413;SDS011;60055;41.884;12.534;2023-01-05T10:50:54;28.40;;;18.92;;
33413;SDS011;60055;41.884;12.534;2023-01-05T10:53:22;33.97;;;19.80;;
33413;SDS011;60055;41.884;12.534;2023-01-05T10:58:37;30.20;;;18.90;;
33413;SDS011;60055;41.884;12.534;2023-01-05T11:01:05;31.30;;;19.42;;
33413;SDS011;60055;41.884;12.534;2023-01-05T11:03:41;31.38;;;18.73;;
33413;SDS011;60055;41.884;12.534;2023-01-05T11:06:17;29.15;;;18.30;;
33413;SDS011;60055;41.884;12.534;2023-01-05T11:08:45;32.30;;;18.52;;
33413;SDS011;60055;41.884;12.534;2023-01-05T11:11:19;28.25;;;18.48;;
33413;SDS011;60055;41.884;12.534;2023-01-05T11:13:47;30.80;;;18.73;;
33413;SDS011;60055;41.884;12.534;2023-01-05T11:16:15;28.95;;;20.40;;
33413;SDS011;60055;41.884;12.534;2023-01-05T11:18:46;29.95;;;20.10;;
33413;SDS011;60055;41.884;12.534;2023-01-05T11:21:19;30.30;;;20.85;;
33413;SDS011;60055;41.884;12.534;2023-01-05T11:23:49;31.60;;;21.33;;
33413;SDS011;60055;41.884;12.534;2023-01-05T11:31:37;31.98;;;20.10;;
33413;SDS011;60055;41.884;12.534;2023-01-05T11:36:51;31.08;;;20.25;;
33413;SDS011;60055;41.884;12.534;2023-01-05T11:39:33;27.52;;;19.33;;
33413;SDS011;60055;41.884;12.534;2023-01-05T11:42:08;40.33;;;20.27;;
33413;SDS011;60055;41.884;12.534;2023-01-05T11:44:37;33.35;;;20.38;;
33413;SDS011;60055;41.884;12.534;2023-01-05T11:47:06;41.42;;;21.30;;
33413;SDS011;60055;41.884;12.534;2023-01-05T11:49:32;32.90;;;20.63;;
33413;SDS011;60055;41.884;12.534;2023-01-05T11:51:59;39.67;;;20.40;;
33413;SDS011;60055;41.884;12.534;2023-01-05T11:54:32;29.38;;;20.63;;
33413;SDS011;60055;41.884;12.534;2023-01-05T11:57:13;33.25;;;21.90;;
33413;SDS011;60055;41.884;12.534;2023-01-05T11:59:42;35.40;;;22.13;;
33413;SDS011;60055;41.884;12.534;2023-01-05T12:05:22;39.28;;;23.48;;
33413;SDS011;60055;41.884;12.534;2023-01-05T12:08:10;35.10;;;22.25;;
33413;SDS011;60055;41.884;12.534;2023-01-05T12:30:50;34.47;;;24.48;;
33413;SDS011;60055;41.884;12.534;2023-01-05T12:52:26;103.45;;;58.78;;
33413;SDS011;60055;41.884;12.534;2023-01-05T12:55:03;42.60;;;26.92;;
33413;SDS011;60055;41.884;12.534;2023-01-05T12:57:44;41.13;;;27.40;;
33413;SDS011;60055;41.884;12.534;2023-01-05T13:00:19;35.97;;;25.15;;
33413;SDS011;60055;41.884;12.534;2023-01-05T13:03:01;41.33;;;26.55;;
33413;SDS011;60055;41.884;12.534;2023-01-05T13:05:45;37.17;;;25.00;;
33413;SDS011;60055;41.884;12.534;2023-01-05T13:08:28;38.33;;;25.13;;
33413;SDS011;60055;41.884;12.534;2023-01-05T13:13:43;41.97;;;23.52;;
33413;SDS011;60055;41.884;12.534;2023-01-05T13:16:20;35.20;;;22.20;;
33413;SDS011;60055;41.884;12.534;2023-01-05T13:18:51;37.60;;;23.25;;
33413;SDS011;60055;41.884;12.534;2023-01-05T13:21:23;33.13;;;24.02;;
33413;SDS011;60055;41.884;12.534;2023-01-05T13:23:52;36.00;;;23.80;;
33413;SDS011;60055;41.884;12.534;2023-01-05T13:26:21;31.15;;;21.98;;
33413;SDS011;60055;41.884;12.534;2023-01-05T13:28:47;34.97;;;23.33;;
33413;SDS011;60055;41.884;12.534;2023-01-05T13:47:27;36.15;;;23.45;;
33413;SDS011;60055;41.884;12.534;2023-01-05T13:50:05;35.97;;;22.02;;
33413;SDS011;60055;41.884;12.534;2023-01-05T13:55:44;34.00;;;24.00;;
33413;SDS011;60055;41.884;12.534;2023-01-05T14:01:05;37.83;;;24.08;;
33413;SDS011;60055;41.884;12.534;2023-01-05T14:03:45;36.42;;;23.85;;
33413;SDS011;60055;41.884;12.534;2023-01-05T14:06:16;37.92;;;25.55;;
33413;SDS011;60055;41.884;12.534;2023-01-05T14:08:51;50.28;;;29.73;;
33413;SDS011;60055;41.884;12.534;2023-01-05T14:11:22;42.05;;;25.25;;
33413;SDS011;60055;41.884;12.534;2023-01-05T14:22:01;37.20;;;25.98;;
33413;SDS011;60055;41.884;12.534;2023-01-05T14:24:28;40.15;;;26.23;;
33413;SDS011;60055;41.884;12.534;2023-01-05T14:32:16;37.97;;;24.60;;
33413;SDS011;60055;41.884;12.534;2023-01-05T14:34:52;42.45;;;26.10;;
33413;SDS011;60055;41.884;12.534;2023-01-05T14:39:48;34.22;;;24.20;;
33413;SDS011;60055;41.884;12.534;2023-01-05T14:42:23;39.33;;;26.33;;
33413;SDS011;60055;41.884;12.534;2023-01-05T14:45:04;40.45;;;26.10;;
33413;SDS011;60055;41.884;12.534;2023-01-05T14:47:46;40.58;;;25.02;;
33413;SDS011;60055;41.884;12.534;2023-01-05T14:55:38;39.97;;;27.38;;
33413;SDS011;60055;41.884;12.534;2023-01-05T15:06:21;50.17;;;31.08;;
33413;SDS011;60055;41.884;12.534;2023-01-05T15:12:04;42.83;;;26.75;;
33413;SDS011;60055;41.884;12.534;2023-01-05T15:23:55;36.72;;;25.17;;
33413;SDS011;60055;41.884;12.534;2023-01-05T15:32:23;57.72;;;32.78;;
33413;SDS011;60055;41.884;12.534;2023-01-05T15:34:59;47.88;;;32.53;;
33413;SDS011;60055;41.884;12.534;2023-01-05T15:37:50;54.55;;;33.75;;
33413;SDS011;60055;41.884;12.534;2023-01-05T15:42:45;44.47;;;29.08;;
33413;SDS011;60055;41.884;12.534;2023-01-05T15:45:16;45.53;;;27.38;;
33413;SDS011;60055;41.884;12.534;2023-01-05T15:48:05;44.23;;;29.17;;
33413;SDS011;60055;41.884;12.534;2023-01-05T15:50:42;48.47;;;31.63;;
33413;SDS011;60055;41.884;12.534;2023-01-05T15:53:32;53.60;;;32.85;;
33413;SDS011;60055;41.884;12.534;2023-01-05T15:56:02;52.17;;;34.45;;
33413;SDS011;60055;41.884;12.534;2023-01-05T15:58:47;55.28;;;33.22;;
33413;SDS011;60055;41.884;12.534;2023-01-05T16:01:14;53.83;;;33.17;;
33413;SDS011;60055;41.884;12.534;2023-01-05T16:03:44;54.50;;;34.70;;
33413;SDS011;60055;41.884;12.534;2023-01-05T16:06:16;60.13;;;36.50;;
33413;SDS011;60055;41.884;12.534;2023-01-05T16:08:49;55.90;;;33.88;;
33413;SDS011;60055;41.884;12.534;2023-01-05T16:11:21;56.50;;;36.58;;
33413;SDS011;60055;41.884;12.534;2023-01-05T16:16:49;56.35;;;35.65;;
33413;SDS011;60055;41.884;12.534;2023-01-05T16:20:19;62.72;;;36.78;;
33413;SDS011;60055;41.884;12.534;2023-01-05T16:22:20;60.58;;;37.40;;
33413;SDS011;60055;41.884;12.534;2023-01-05T16:25:02;60.75;;;35.85;;
33413;SDS011;60055;41.884;12.534;2023-01-05T16:27:42;56.93;;;35.13;;
33413;SDS011;60055;41.884;12.534;2023-01-05T16:30:12;55.47;;;34.30;;
33413;SDS011;60055;41.884;12.534;2023-01-05T16:33:15;56.17;;;34.28;;
33413;SDS011;60055;41.884;12.534;2023-01-05T16:35:45;55.17;;;34.50;;
33413;SDS011;60055;41.884;12.534;2023-01-05T16:38:30;50.78;;;33.50;;
33413;SDS011;60055;41.884;12.534;2023-01-05T16:41:45;57.97;;;34.63;;
33413;SDS011;60055;41.884;12.534;2023-01-05T16:43:51;56.70;;;33.53;;
33413;SDS011;60055;41.884;12.534;2023-01-05T16:46:32;57.70;;;33.75;;
33413;SDS011;60055;41.884;12.534;2023-01-05T16:51:51;62.20;;;35.28;;
33413;SDS011;60055;41.884;12.534;2023-01-05T16:54:30;61.10;;;34.50;;
33413;SDS011;60055;41.884;12.534;2023-01-05T16:57:04;48.95;;;32.00;;
33413;SDS011;60055;41.884;12.534;2023-01-05T17:05:11;64.32;;;33.83;;
33413;SDS011;60055;41.884;12.534;2023-01-05T17:07:39;61.33;;;33.30;;
33413;SDS011;60055;41.884;12.534;2023-01-05T17:10:12;49.22;;;32.80;;
33413;SDS011;60055;41.884;12.534;2023-01-05T17:12:51;57.80;;;34.05;;
33413;SDS011;60055;41.884;12.534;2023-01-05T17:15:21;73.15;;;42.13;;
33413;SDS011;60055;41.884;12.534;2023-01-05T17:17:49;65.00;;;38.17;;
33413;SDS011;60055;41.884;12.534;2023-01-05T17:20:18;67.57;;;38.58;;
33413;SDS011;60055;41.884;12.534;2023-01-05T17:22:43;65.43;;;35.97;;
33413;SDS011;60055;41.884;12.534;2023-01-05T17:25:13;59.33;;;36.33;;
33413;SDS011;60055;41.884;12.534;2023-01-05T17:27:39;55.72;;;35.25;;
33413;SDS011;60055;41.884;12.534;2023-01-05T17:30:19;57.53;;;35.30;;
33413;SDS011;60055;41.884;12.534;2023-01-05T17:32:47;61.40;;;37.05;;